createdAt,value
2019-01-31T05:43:49.480Z,99.90
2019-01-31T05:46:18.645Z,99.90
2019-01-31T05:48:48.020Z,99.90
2019-01-31T05:51:17.733Z,99.90
2019-01-31T05:53:46.901Z,99.90
2019-01-31T05:56:16.092Z,99.90
2019-01-31T05:58:45.415Z,99.90
2019-01-31T06:01:14.680Z,99.90
2019-01-31T06:03:43.826Z,99.90
2019-01-31T06:06:12.998Z,99.90
2019-01-31T06:08:42.159Z,99.90
2019-01-31T06:11:11.350Z,99.90
2019-01-31T06:13:40.541Z,99.90
2019-01-31T06:16:09.823Z,99.90
2019-01-31T06:18:38.962Z,99.90
2019-01-31T06:21:08.203Z,99.90
2019-01-31T06:23:37.436Z,99.90
2019-01-31T06:26:06.919Z,99.90
2019-01-31T06:28:36.305Z,99.90
2019-01-31T06:31:05.685Z,99.90
2019-01-31T06:33:34.975Z,99.90
2019-01-31T06:36:04.162Z,99.90
2019-01-31T06:38:33.452Z,99.90
2019-01-31T06:41:02.745Z,99.90
2019-01-31T06:43:31.938Z,99.90
2019-01-31T06:46:01.277Z,99.90
2019-01-31T06:48:30.687Z,99.90
2019-01-31T06:51:00.028Z,99.90
2019-01-31T06:53:29.221Z,99.90
2019-01-31T06:55:58.388Z,99.90
2019-01-31T06:58:27.571Z,99.90
2019-01-31T07:00:56.744Z,99.90
2019-01-31T07:03:25.966Z,99.90
2019-01-31T07:05:55.244Z,99.90
2019-01-31T07:08:24.507Z,99.90
2019-01-31T07:10:53.731Z,99.90
2019-01-31T07:13:22.937Z,99.90
2019-01-31T07:15:52.226Z,99.90
2019-01-31T07:18:21.475Z,99.90
2019-01-31T07:20:50.711Z,99.90
2019-01-31T07:23:19.989Z,99.90
2019-01-31T07:25:49.161Z,99.90
2019-01-31T07:28:18.827Z,99.90
2019-01-31T07:30:48.008Z,99.90
2019-01-31T07:33:17.231Z,99.90
2019-01-31T07:35:46.415Z,99.90
2019-01-31T07:38:15.670Z,99.90
2019-01-31T07:40:44.852Z,99.90
2019-01-31T07:43:14.085Z,99.90
2019-01-31T07:45:43.366Z,99.90
2019-01-31T07:48:12.627Z,99.90
2019-01-31T07:50:41.837Z,99.90
2019-01-31T07:53:12.919Z,99.90
2019-01-31T07:55:42.492Z,99.90
2019-01-31T07:58:11.877Z,99.90
2019-01-31T08:00:41.054Z,99.90
2019-01-31T08:03:10.268Z,99.90
2019-01-31T08:05:40.139Z,99.90
2019-01-31T08:08:09.749Z,99.90
2019-01-31T08:10:41.480Z,99.90
2019-01-31T08:13:11.309Z,99.90
2019-01-31T08:15:40.578Z,99.90
2019-01-31T08:18:11.065Z,99.90
2019-01-31T08:20:41.611Z,99.90
2019-01-31T08:23:10.898Z,99.90
2019-01-31T08:25:40.156Z,99.90
2019-01-31T08:28:09.404Z,99.90
2019-01-31T08:30:41.446Z,99.50
2019-01-31T08:33:10.773Z,94.90
2019-01-31T08:35:40.544Z,90.60
2019-01-31T08:38:09.704Z,71.40
2019-01-31T08:40:39.030Z,71.50
2019-01-31T08:43:08.251Z,74.20
2019-01-31T08:45:37.501Z,79.30
2019-01-31T08:48:07.081Z,86.00
2019-01-31T08:50:36.400Z,91.20
2019-01-31T08:53:05.672Z,89.00
2019-01-31T08:55:34.933Z,88.70
2019-01-31T08:58:04.583Z,87.30
2019-01-31T09:00:33.746Z,82.20
2019-01-31T09:03:03.020Z,83.50
2019-01-31T09:05:32.447Z,81.90
2019-01-31T09:08:01.954Z,88.40
2019-01-31T09:10:34.012Z,92.10
2019-01-31T09:13:06.059Z,92.90
2019-01-31T09:15:35.217Z,92.20
2019-01-31T09:18:05.003Z,94.90
2019-01-31T09:20:58.990Z,94.10
2019-01-31T09:23:56.096Z,91.40
2019-01-31T09:27:17.159Z,87.20
2019-01-31T09:30:21.167Z,71.80
2019-01-31T09:33:12.733Z,67.60
2019-01-31T09:36:38.320Z,72.60
2019-01-31T09:39:35.329Z,70.80
2019-01-31T09:42:13.078Z,64.20
2019-01-31T09:45:31.291Z,67.80
2019-01-31T09:48:50.380Z,67.50
2019-01-31T09:52:04.229Z,63.40
2019-01-31T09:54:50.724Z,55.00
2019-01-31T09:58:07.541Z,51.50
2019-01-31T10:01:24.261Z,51.30
2019-01-31T10:04:38.754Z,50.60
2019-01-31T10:07:40.480Z,51.40
2019-01-31T10:10:47.139Z,52.10
2019-01-31T10:13:59.600Z,55.00
2019-01-31T10:16:47.495Z,51.40
2019-01-31T10:20:09.651Z,49.80
2019-01-31T10:23:05.366Z,48.50
2019-01-31T10:26:00.583Z,49.40
2019-01-31T10:29:06.969Z,50.50
2019-01-31T10:32:21.250Z,50.10
2019-01-31T10:35:19.099Z,51.50
2019-01-31T10:38:27.945Z,51.60
2019-01-31T10:41:33.867Z,50.90
2019-01-31T10:44:34.896Z,50.10
2019-01-31T10:47:28.857Z,49.50
2019-01-31T10:50:33.910Z,49.00
2019-01-31T10:53:26.009Z,48.70
2019-01-31T10:56:17.952Z,49.30
2019-01-31T10:59:17.023Z,48.80
2019-01-31T11:02:17.681Z,49.60
2019-01-31T11:05:37.067Z,49.70
2019-01-31T11:08:44.842Z,50.70
2019-01-31T11:11:51.019Z,51.60
2019-01-31T11:14:46.635Z,50.60
2019-01-31T11:17:46.698Z,52.40
2019-01-31T11:20:53.054Z,49.70
2019-01-31T11:24:02.252Z,50.80
2019-01-31T11:27:23.182Z,52.10
2019-01-31T11:30:24.606Z,49.80
2019-01-31T11:33:49.421Z,51.90
2019-01-31T11:36:49.830Z,53.50
2019-01-31T11:39:46.994Z,56.20
2019-01-31T11:42:27.085Z,58.80
2019-01-31T11:45:09.237Z,62.80
2019-01-31T11:48:18.144Z,61.00
2019-01-31T11:51:34.545Z,63.50
2019-01-31T11:54:30.972Z,66.90
2019-01-31T11:57:15.384Z,69.20
2019-01-31T11:59:44.575Z,75.60
2019-01-31T12:02:13.814Z,76.90
2019-01-31T12:04:43.181Z,81.10
2019-01-31T12:07:12.822Z,84.10
2019-01-31T12:09:42.080Z,84.00
2019-01-31T12:12:11.254Z,86.70
2019-01-31T12:14:41.027Z,87.20
2019-01-31T12:17:10.182Z,84.30
2019-01-31T12:19:39.687Z,84.60
2019-01-31T12:22:09.189Z,86.90
2019-01-31T12:24:38.344Z,84.60
2019-01-31T12:27:07.580Z,84.70
2019-01-31T12:29:36.731Z,84.60
2019-01-31T12:32:06.869Z,88.30
2019-01-31T12:34:36.100Z,84.10
2019-01-31T12:37:05.651Z,89.80
2019-01-31T12:39:34.804Z,87.80
2019-01-31T12:42:04.372Z,87.80
2019-01-31T12:44:33.567Z,90.50
2019-01-31T12:47:03.102Z,90.10
2019-01-31T12:49:32.244Z,89.80
2019-01-31T12:52:04.060Z,89.00
2019-01-31T12:54:32.370Z,89.60
2019-01-31T12:57:01.601Z,83.60
2019-01-31T12:59:30.779Z,83.80
2019-01-31T13:02:00.015Z,86.70
2019-01-31T13:04:29.169Z,80.80
2019-01-31T13:06:58.391Z,87.60
2019-01-31T13:09:28.412Z,80.30
2019-01-31T13:11:57.970Z,76.10
2019-01-31T13:14:28.607Z,81.50
2019-01-31T13:16:58.104Z,83.70
2019-01-31T13:19:27.380Z,85.40
2019-01-31T13:21:56.668Z,81.00
2019-01-31T13:24:25.843Z,84.40
2019-01-31T13:26:54.984Z,82.20
2019-01-31T13:29:24.190Z,78.80
2019-01-31T13:31:53.370Z,80.40
2019-01-31T13:34:22.557Z,79.20
2019-01-31T13:36:51.904Z,81.30
2019-01-31T13:39:21.990Z,81.10
2019-01-31T13:41:51.184Z,80.70
2019-01-31T13:44:20.737Z,80.00
2019-01-31T13:46:49.999Z,79.00
2019-01-31T13:49:19.152Z,75.60
2019-01-31T13:51:48.417Z,81.80
2019-01-31T13:54:17.588Z,78.90
2019-01-31T13:56:46.895Z,81.60
2019-01-31T13:59:16.080Z,83.30
2019-01-31T14:01:45.362Z,82.20
2019-01-31T14:04:14.540Z,83.50
2019-01-31T14:06:44.190Z,86.30
2019-01-31T14:09:13.613Z,81.50
2019-01-31T14:11:42.890Z,83.50
2019-01-31T14:14:12.065Z,81.50
2019-01-31T14:16:47.752Z,83.50
2019-01-31T14:19:12.197Z,80.50
2019-01-31T14:21:44.015Z,80.70
2019-01-31T14:24:12.436Z,82.20
2019-01-31T14:26:42.111Z,83.10
2019-01-31T14:29:11.274Z,81.70
2019-01-31T14:31:40.585Z,84.30
2019-01-31T14:34:09.861Z,86.70
2019-01-31T14:36:39.543Z,87.70
2019-01-31T14:39:10.615Z,88.80
2019-01-31T14:41:40.440Z,90.30
2019-01-31T14:44:19.906Z,92.70
2019-01-31T14:46:40.585Z,93.70
2019-01-31T14:49:09.865Z,95.40
2019-01-31T14:51:39.070Z,95.80
2019-01-31T14:54:08.419Z,96.40
2019-01-31T14:56:37.704Z,98.60
2019-01-31T14:59:07.095Z,97.90
2019-01-31T15:01:36.309Z,99.00
2019-01-31T15:04:05.987Z,99.00
2019-01-31T15:06:35.255Z,98.70
2019-01-31T15:09:08.759Z,99.60
2019-01-31T15:11:38.199Z,99.50
2019-01-31T15:14:07.651Z,99.40
2019-01-31T15:16:37.092Z,99.10
2019-01-31T15:19:06.382Z,99.50
2019-01-31T15:21:35.673Z,99.90
2019-01-31T15:24:05.054Z,99.90
2019-01-31T15:26:34.282Z,99.90
2019-01-31T15:29:03.937Z,99.90
2019-01-31T15:31:33.490Z,99.90
2019-01-31T15:34:03.665Z,99.90
2019-01-31T15:36:32.888Z,99.90
2019-01-31T15:39:02.136Z,99.90
2019-01-31T15:41:31.411Z,99.90
2019-01-31T15:44:03.135Z,99.90
2019-01-31T15:46:32.304Z,99.90
2019-01-31T15:49:01.566Z,99.90
2019-01-31T15:51:30.890Z,99.90
2019-01-31T15:54:00.209Z,99.90
2019-01-31T15:56:29.458Z,99.90
2019-01-31T15:58:58.804Z,99.90
2019-01-31T16:01:28.092Z,99.90
2019-01-31T16:03:57.285Z,99.90
2019-01-31T16:06:26.442Z,99.90
2019-01-31T16:08:56.075Z,99.90
2019-01-31T16:11:25.816Z,99.90
2019-01-31T16:13:55.161Z,99.90
2019-01-31T16:16:24.324Z,99.90
2019-01-31T16:18:53.495Z,99.90
2019-01-31T16:21:22.770Z,99.90
2019-01-31T16:23:52.134Z,99.90
2019-01-31T16:26:21.386Z,99.90
2019-01-31T16:28:51.796Z,99.90
2019-01-31T16:31:21.138Z,99.90
2019-01-31T16:33:50.408Z,99.90
2019-01-31T16:36:19.775Z,99.90
2019-01-31T16:38:48.992Z,99.90
2019-01-31T16:41:18.238Z,99.90
2019-01-31T16:43:47.769Z,99.90
2019-01-31T16:46:17.176Z,99.90
2019-01-31T16:48:46.463Z,99.90
2019-01-31T16:51:15.657Z,99.90
2019-01-31T16:53:45.530Z,99.90
2019-01-31T16:56:14.824Z,99.90
2019-01-31T16:58:44.032Z,99.90
2019-01-31T17:01:15.896Z,99.90
2019-01-31T17:03:44.258Z,99.90
2019-01-31T17:06:13.494Z,99.90
2019-01-31T17:08:42.849Z,99.90
2019-01-31T17:11:12.074Z,99.90
2019-01-31T17:13:41.756Z,99.90
2019-01-31T17:16:10.946Z,99.90
2019-01-31T17:18:40.157Z,99.90
2019-01-31T17:21:09.439Z,99.90
2019-01-31T17:23:38.714Z,99.90
2019-01-31T17:26:08.184Z,99.90
2019-01-31T17:28:37.411Z,99.90
2019-01-31T17:31:06.993Z,99.90
2019-01-31T17:33:36.257Z,99.90
2019-01-31T17:36:05.572Z,99.90
2019-01-31T17:38:34.843Z,99.90
2019-01-31T17:41:04.205Z,99.90
2019-01-31T17:43:33.481Z,99.90
2019-01-31T17:46:02.779Z,99.90
2019-01-31T17:48:32.034Z,99.90
2019-01-31T17:51:02.329Z,99.90
2019-01-31T17:53:31.866Z,99.90
2019-01-31T17:56:01.192Z,99.90
2019-01-31T17:58:30.386Z,99.90
2019-01-31T18:00:59.855Z,99.90
2019-01-31T18:03:29.436Z,99.90
2019-01-31T18:05:59.328Z,99.90
2019-01-31T18:08:28.639Z,99.90
2019-01-31T18:10:57.931Z,99.90
2019-01-31T18:13:27.172Z,99.90
2019-01-31T18:15:56.375Z,99.90
2019-01-31T18:18:25.661Z,99.90
2019-01-31T18:20:54.909Z,99.90
2019-01-31T18:23:24.215Z,99.90
2019-01-31T18:25:53.494Z,99.90
2019-01-31T18:28:22.877Z,99.90
2019-01-31T18:30:52.234Z,99.90
2019-01-31T18:33:21.480Z,99.90
2019-01-31T18:35:50.863Z,99.90
2019-01-31T18:38:20.197Z,99.90
2019-01-31T18:40:49.503Z,99.90
2019-01-31T18:43:19.690Z,99.90
2019-01-31T18:45:53.474Z,99.90
2019-01-31T18:48:21.324Z,99.90
2019-01-31T18:50:50.875Z,99.90
2019-01-31T18:53:20.120Z,99.90
2019-01-31T18:55:49.381Z,99.90
2019-01-31T18:58:18.589Z,99.90
2019-01-31T19:00:49.998Z,99.90
2019-01-31T19:03:19.169Z,99.90
2019-01-31T19:05:48.520Z,99.90
2019-01-31T19:08:17.924Z,99.90
2019-01-31T19:10:47.608Z,99.90
2019-01-31T19:13:16.845Z,99.90
2019-01-31T19:15:46.611Z,99.90
2019-01-31T19:18:16.401Z,99.90
2019-01-31T19:20:45.699Z,99.90
2019-01-31T19:23:15.491Z,99.90
2019-01-31T19:25:47.241Z,99.90
2019-01-31T19:28:15.765Z,99.90
2019-01-31T19:30:45.059Z,99.90
2019-01-31T19:33:14.283Z,99.90
2019-01-31T19:35:43.598Z,99.90
2019-01-31T19:38:13.114Z,99.90
2019-01-31T19:40:45.008Z,99.90
2019-01-31T19:43:14.384Z,99.90
2019-01-31T19:45:52.053Z,99.90
2019-01-31T19:48:21.352Z,99.90
2019-01-31T19:50:50.719Z,99.90
2019-01-31T19:53:20.015Z,99.90
2019-01-31T19:55:49.365Z,99.90
2019-01-31T19:58:18.582Z,99.90
2019-01-31T20:00:48.147Z,99.90
2019-01-31T20:03:17.461Z,99.90
2019-01-31T20:05:46.691Z,99.90
2019-01-31T20:08:16.044Z,99.90
2019-01-31T20:10:45.551Z,99.90
2019-01-31T20:13:15.194Z,99.90
2019-01-31T20:15:44.533Z,99.90
2019-01-31T20:18:13.719Z,99.90
2019-01-31T20:20:43.022Z,99.90
2019-01-31T20:23:12.917Z,99.90
2019-01-31T20:25:42.298Z,99.90
2019-01-31T20:28:11.663Z,99.90
2019-01-31T20:30:40.950Z,99.90
2019-01-31T20:33:10.290Z,99.90
2019-01-31T20:35:39.981Z,99.90
2019-01-31T20:38:09.384Z,99.90
2019-01-31T20:40:43.196Z,99.90
2019-01-31T20:43:12.591Z,99.90
2019-01-31T20:45:42.114Z,99.90
2019-01-31T20:48:11.406Z,99.90
2019-01-31T20:50:42.821Z,99.90
2019-01-31T20:53:12.441Z,99.90
2019-01-31T20:55:41.854Z,99.90
2019-01-31T20:58:11.120Z,99.90
2019-01-31T21:00:45.744Z,99.90
2019-01-31T21:03:15.506Z,99.90
2019-01-31T21:05:45.484Z,99.90
2019-01-31T21:08:15.643Z,99.90
2019-01-31T21:10:45.740Z,99.90
2019-01-31T21:13:15.107Z,99.90
2019-01-31T21:15:44.528Z,99.90
2019-01-31T21:18:13.874Z,99.90
2019-01-31T21:20:43.067Z,99.90
2019-01-31T21:23:12.574Z,99.90
2019-01-31T21:25:41.850Z,99.90
2019-01-31T21:28:11.161Z,99.90
2019-01-31T21:30:42.458Z,99.90
2019-01-31T21:33:11.957Z,99.90
2019-01-31T21:35:41.754Z,99.90
2019-01-31T21:38:11.125Z,99.90
2019-01-31T21:40:41.118Z,99.90
2019-01-31T21:43:11.924Z,99.90
2019-01-31T21:45:41.173Z,99.90
2019-01-31T21:48:11.998Z,99.90
2019-01-31T21:50:41.338Z,99.90
2019-01-31T21:53:10.997Z,99.90
2019-01-31T21:55:40.278Z,99.90
2019-01-31T21:58:09.879Z,99.90
2019-01-31T22:00:39.444Z,99.90
2019-01-31T22:03:09.202Z,99.90
2019-01-31T22:05:39.009Z,99.90
2019-01-31T22:08:08.355Z,99.90
2019-01-31T22:10:37.623Z,99.90
2019-01-31T22:13:07.149Z,99.90
2019-01-31T22:15:36.515Z,99.90
2019-01-31T22:18:07.138Z,99.90
2019-01-31T22:20:36.970Z,99.90
2019-01-31T22:23:06.235Z,99.90
2019-01-31T22:25:35.676Z,99.90
2019-01-31T22:28:06.359Z,99.90
2019-01-31T22:30:38.118Z,99.90
